LTCGLTCC

Guest
Details From LTCG - TRABZON
To LTCC - DIYARBAKIR
Flight Number -
Tags generated
Created
Modified
Stats Distance 193 nm / 358 km
Max Altitude 28,500 ft / 8,687 m
Waypoints 8
Social Downloads 0
Likes 0
Share VATSIM

Download

Looking for another format? Having issues loading an existing format? Contact us
Advertisement - Login to hide

Notes

Basic altitude profile: - Ascent Rate: 2500ft/min - Ascent Speed: 250kts - Cruise Altitude: 35000ft - Cruise Speed: 420kts - Descent Rate: 1500ft/min - Descent Speed: 250kts Options: - Use NATs: yes - Use PACOTS: yes - Use low airways: yes - Use high airways: yes

Route

LTCG ORTAK W88 BALON UW88 KONUK LTCC

ID Type Via Altitude Latitude Longitude Leg Dist Tot Dist Heading (true) Name
O LTCG APT - 0 ft / 0 m 40.99506˚ 39.78970˚ - 0 nm - TRABZON
ORTAK FIX - 7,100 ft / 2,164 m 40.66556˚ 39.71639˚ 20 nm 20 nm 190° / 190° -
SONAD FIX W88 (AWY-LO) 26,500 ft / 8,077 m 40.41806˚ 39.67639˚ 14 nm 35 nm 187° / 187° -
BALON FIX W88 (AWY-LO) 26,500 ft / 8,077 m 40.09167˚ 39.60833˚ 19 nm 54 nm 189° / 189° -
BUDAK FIX UW88 (AWY-HI) 28,500 ft / 8,687 m 39.91306˚ 39.57278˚ 10 nm 65 nm 189° / 189° -
ERN NDB UW88 (AWY-HI) 28,500 ft / 8,687 m 39.70833˚ 39.52917˚ 12 nm 78 nm 189° / 189° ERZINCAN NDB
KONUK FIX UW88 (AWY-HI) 28,500 ft / 8,687 m 39.51167˚ 39.46806˚ 12 nm 90 nm 193° / 193° -
O LTCC APT - 0 ft / 0 m 37.89390˚ 40.20102˚ 103 nm 193 nm 160° / 161° DIYARBAKIR

Altitude Profile

Advertisement - Login to hide

Weather


0- 5 10 15 20 25 30 35+ Temperature / ° C

Clouds and Precipitation
Forecast for 2017-12-13 18:00 UTC. Updated 2 hours ago

Ground ~20,000 ft ~40,000 ft Winds

LTCG

Details ICAO LTCG (TZX)
Name TRABZON
Region Turkey
Timezone Europe/Istanbul (UTC+3.0)
Stats Elevation 104 ft / 32 m (AMSL)
Location 40.995060° 39.789701°
Runways 1
Magnetic Variation 6.319° E

METAR

LTCG 131650Z 17005KT 9999 SCT012 SCT200 12/07 Q1020 NOSIG

Decode

TAF

Not found

Departure Runways

ID Width Length Bearing (true) Bearing (mag) Surface Threshold Offset Overrun Length
11 148 ft / 45 m 8,609 ft / 2,624 m 112.32° 106.00° Asphalt 0 ft / 0 m 197 ft / 60 m
29 148 ft / 45 m 8,609 ft / 2,624 m 292.34° 286.02° Asphalt 0 ft / 0 m 197 ft / 60 m

LTCC

Details ICAO LTCC (DIY)
Name DIYARBAKIR
Region Turkey
Timezone Europe/Istanbul (UTC+3.0)
Stats Elevation 2,251 ft / 686 m (AMSL)
Location 37.893898° 40.201017°
Runways 1
Magnetic Variation 5.639° E

METAR

LTCC 131650Z 23001KT CAVOK 05/M01 Q1018 NOSIG

Decode

TAF

Not found

Destination Runways

ID Width Length Bearing (true) Bearing (mag) Surface Threshold Offset Overrun Length
16 148 ft / 45 m 11,663 ft / 3,555 m 162.66° 157.02° Concrete 0 ft / 0 m 507 ft / 155 m
34 148 ft / 45 m 11,663 ft / 3,555 m 342.67° 337.03° Concrete 0 ft / 0 m 495 ft / 151 m

Popular Alternatives